Time;durP1;ratioP1;P1;durP2;ratioP2;P2;SDS_P1;SDS_P2;PMS_P1;PMS_P2;Temp;Humidity;BMP_temperature;BMP_pressure;BME280_temperature;BME280_humidity;BME280_pressure;Samples;Min_cycle;Max_cycle;Signal;HPM_P1;HPM_P2
2022/07/30 00:01:35;;;;;;;8.13;6.47;;;;;;;;;;5034624;28;20405;-75
2022/07/30 00:04:01;;;;;;;9.00;5.90;;;;;;;;;;5032618;28;20414;-74
2022/07/30 00:06:27;;;;;;;9.27;5.97;;;;;;;;;;5034132;28;20468;-76
2022/07/30 00:08:53;;;;;;;6.37;5.00;;;;;;;;;;5034542;28;20819;-75
2022/07/30 00:11:20;;;;;;;11.90;5.40;;;;;;;;;;5034432;28;20430;-76
2022/07/30 00:13:46;;;;;;;6.20;5.43;;;;;;;;;;5032629;28;20575;-77
2022/07/30 00:16:12;;;;;;;7.33;5.87;;;;;;;;;;5034079;28;20808;-77
2022/07/30 00:18:38;;;;;;;5.73;5.23;;;;;;;;;;5033013;28;20755;-76
2022/07/30 00:21:04;;;;;;;6.00;5.40;;;;;;;;;;5034172;28;20398;-77
2022/07/30 00:23:31;;;;;;;5.87;4.90;;;;;;;;;;5033827;28;20408;-76
2022/07/30 00:25:57;;;;;;;6.30;4.90;;;;;;;;;;5032690;28;20396;-77
2022/07/30 00:28:23;;;;;;;6.43;5.60;;;;;;;;;;5034009;28;20396;-77
2022/07/30 00:30:49;;;;;;;6.53;5.83;;;;;;;;;;5034210;28;20403;-76
2022/07/30 00:33:15;;;;;;;7.83;5.67;;;;;;;;;;5033600;28;20443;-76
2022/07/30 00:35:41;;;;;;;5.70;5.10;;;;;;;;;;5033966;28;20940;-76
2022/07/30 00:38:07;;;;;;;9.40;6.50;;;;;;;;;;5033800;28;20452;-76
2022/07/30 00:40:33;;;;;;;6.67;5.97;;;;;;;;;;5033777;28;20415;-76
2022/07/30 00:42:59;;;;;;;7.40;6.70;;;;;;;;;;5033440;28;20412;-76
2022/07/30 00:45:26;;;;;;;10.40;5.70;;;;;;;;;;5033888;28;20816;-76
2022/07/30 00:47:52;;;;;;;6.50;5.90;;;;;;;;;;5034013;28;20496;-76
2022/07/30 00:50:18;;;;;;;8.00;5.70;;;;;;;;;;5032502;28;20992;-76
2022/07/30 00:52:44;;;;;;;8.00;6.90;;;;;;;;;;5033358;28;20414;-75
2022/07/30 00:55:12;;;;;;;6.43;5.67;;;;;;;;;;5032525;28;20439;-74
2022/07/30 00:57:38;;;;;;;7.50;6.30;;;;;;;;;;5032220;28;20845;-76
2022/07/30 01:00:06;;;;;;;7.07;6.33;;;;;;;;;;5033797;28;20402;-77
2022/07/30 01:02:32;;;;;;;8.33;7.27;;;;;;;;;;5033005;28;20452;-76
2022/07/30 01:04:58;;;;;;;10.17;6.70;;;;;;;;;;5033208;28;20509;-76
2022/07/30 01:07:24;;;;;;;7.03;6.33;;;;;;;;;;5033603;28;20389;-75
2022/07/30 01:09:50;;;;;;;7.07;6.40;;;;;;;;;;5033630;28;20775;-75
2022/07/30 01:12:17;;;;;;;6.50;6.00;;;;;;;;;;5033060;28;20388;-78
2022/07/30 01:14:43;;;;;;;7.50;6.80;;;;;;;;;;5031932;28;20900;-75
2022/07/30 01:17:09;;;;;;;6.40;5.80;;;;;;;;;;5033305;28;20448;-75
2022/07/30 01:19:51;;;;;;;8.57;6.43;;;;;;;;;;5033345;28;20438;-76
2022/07/30 01:22:21;;;;;;;8.40;7.47;;;;;;;;;;5032886;28;20850;-76
2022/07/30 01:24:55;;;;;;;9.63;7.33;;;;;;;;;;5031827;28;20443;-76
2022/07/30 01:27:22;;;;;;;8.40;7.07;;;;;;;;;;5033372;28;20412;-75
2022/07/30 01:29:48;;;;;;;7.30;6.60;;;;;;;;;;5033270;28;20931;-76
2022/07/30 01:32:15;;;;;;;9.30;6.67;;;;;;;;;;5032093;28;20396;-75
2022/07/30 01:34:42;;;;;;;11.30;7.53;;;;;;;;;;5032965;28;20418;-76
2022/07/30 01:37:09;;;;;;;7.80;5.70;;;;;;;;;;5033210;28;20509;-77
2022/07/30 01:39:36;;;;;;;7.60;6.80;;;;;;;;;;5033435;28;20413;-75
2022/07/30 01:42:06;;;;;;;11.03;6.93;;;;;;;;;;5033116;28;20428;-75
2022/07/30 01:44:32;;;;;;;9.40;7.10;;;;;;;;;;5031556;28;20906;-75
2022/07/30 01:46:58;;;;;;;9.03;6.90;;;;;;;;;;5032042;28;20411;-76
2022/07/30 01:49:25;;;;;;;8.57;7.77;;;;;;;;;;5033109;28;20404;-76
2022/07/30 01:51:53;;;;;;;11.30;8.77;;;;;;;;;;5032956;28;20448;-76
2022/07/30 01:54:19;;;;;;;10.90;8.17;;;;;;;;;;5032624;28;20415;-76
2022/07/30 01:56:46;;;;;;;12.10;8.50;;;;;;;;;;5032929;28;20487;-75
2022/07/30 01:59:13;;;;;;;9.80;7.60;;;;;;;;;;5033010;28;20394;-75
2022/07/30 02:01:39;;;;;;;10.40;9.43;;;;;;;;;;5033108;28;20447;-76
2022/07/30 02:04:05;;;;;;;11.07;9.97;;;;;;;;;;5032305;28;20932;-75
2022/07/30 02:06:37;;;;;;;10.03;8.93;;;;;;;;;;5032949;28;20409;-76
2022/07/30 02:09:05;;;;;;;11.30;9.07;;;;;;;;;;5032753;28;20460;-76
2022/07/30 02:14:22;;;;;;;14.80;8.83;;;;;;;;;;5032683;28;20475;-76
2022/07/30 02:16:50;;;;;;;10.07;8.23;;;;;;;;;;5032510;28;20461;-75
2022/07/30 02:19:17;;;;;;;9.80;8.77;;;;;;;;;;5032630;28;20806;-75
2022/07/30 02:21:52;;;;;;;16.60;9.77;;;;;;;;;;5033010;28;20405;-75
2022/07/30 02:24:21;;;;;;;10.57;8.17;;;;;;;;;;5031126;28;20418;-77
2022/07/30 02:26:49;;;;;;;12.33;8.47;;;;;;;;;;5032502;28;20427;-76
2022/07/30 02:29:16;;;;;;;13.13;8.23;;;;;;;;;;5032744;28;20420;-76
2022/07/30 02:31:43;;;;;;;14.17;9.67;;;;;;;;;;5037823;28;20512;-76
2022/07/30 02:34:10;;;;;;;9.60;7.53;;;;;;;;;;5037409;28;20430;-76
2022/07/30 02:36:37;;;;;;;14.60;9.80;;;;;;;;;;5034882;28;20500;-75
2022/07/30 02:39:04;;;;;;;10.43;8.90;;;;;;;;;;5034992;28;20774;-75
2022/07/30 02:41:31;;;;;;;9.30;8.30;;;;;;;;;;5036139;28;20405;-75
2022/07/30 02:43:57;;;;;;;17.93;9.20;;;;;;;;;;5035720;28;20448;-75
2022/07/30 02:46:24;;;;;;;17.30;10.27;;;;;;;;;;5036127;28;20413;-75
2022/07/30 02:48:51;;;;;;;22.10;9.10;;;;;;;;;;5036155;28;20463;-77
2022/07/30 02:51:18;;;;;;;11.27;8.80;;;;;;;;;;5036193;28;20421;-75
2022/07/30 02:53:45;;;;;;;10.97;9.17;;;;;;;;;;5035571;28;20527;-75
2022/07/30 02:56:12;;;;;;;11.40;10.20;;;;;;;;;;5035998;28;20460;-76
2022/07/30 02:58:39;;;;;;;15.30;9.97;;;;;;;;;;5035872;28;20769;-76
2022/07/30 03:01:05;;;;;;;14.93;10.73;;;;;;;;;;5035894;28;20388;-76
2022/07/30 03:03:32;;;;;;;14.07;10.60;;;;;;;;;;5035312;28;20448;-74
2022/07/30 03:05:58;;;;;;;15.80;9.13;;;;;;;;;;5035538;28;20405;-75
2022/07/30 03:08:25;;;;;;;14.00;9.23;;;;;;;;;;5035646;28;20443;-75
2022/07/30 03:10:53;;;;;;;12.23;10.23;;;;;;;;;;5034091;28;20748;-76
2022/07/30 03:13:20;;;;;;;12.30;9.83;;;;;;;;;;5035120;28;20608;-75
2022/07/30 03:15:49;;;;;;;14.00;10.23;;;;;;;;;;5035510;28;20465;-75
2022/07/30 03:18:17;;;;;;;14.23;9.37;;;;;;;;;;5035984;28;20392;-76
2022/07/30 03:20:48;;;;;;;12.03;10.20;;;;;;;;;;5034611;28;20392;-75
2022/07/30 03:23:16;;;;;;;12.13;8.73;;;;;;;;;;5034994;28;20437;-76
2022/07/30 03:25:44;;;;;;;9.53;8.53;;;;;;;;;;5038699;28;20388;-75
2022/07/30 03:28:11;;;;;;;12.20;8.60;;;;;;;;;;5038702;28;20417;-76
2022/07/30 03:30:37;;;;;;;10.70;9.10;;;;;;;;;;5034729;28;20424;-75
2022/07/30 03:33:05;;;;;;;10.70;9.60;;;;;;;;;;5034662;28;20466;-75
2022/07/30 03:35:31;;;;;;;10.13;9.07;;;;;;;;;;5035027;28;20450;-76
2022/07/30 03:37:58;;;;;;;9.67;8.53;;;;;;;;;;5035399;28;20388;-76
2022/07/30 03:40:24;;;;;;;16.47;8.67;;;;;;;;;;5035047;28;20423;-76
2022/07/30 03:42:50;;;;;;;11.03;9.83;;;;;;;;;;5033662;28;20420;-75
2022/07/30 03:45:18;;;;;;;17.97;9.93;;;;;;;;;;5035049;28;20472;-75
2022/07/30 03:47:44;;;;;;;15.43;9.27;;;;;;;;;;5035009;28;20451;-75
2022/07/30 03:50:11;;;;;;;10.37;9.33;;;;;;;;;;5034894;28;20496;-75
2022/07/30 03:52:39;;;;;;;13.23;8.70;;;;;;;;;;5033239;28;20388;-76
2022/07/30 03:55:06;;;;;;;14.57;10.80;;;;;;;;;;5033546;28;20425;-75
2022/07/30 03:57:32;;;;;;;15.67;10.30;;;;;;;;;;5034517;28;20388;-75
2022/07/30 03:59:58;;;;;;;14.33;11.10;;;;;;;;;;5034698;28;20425;-76
2022/07/30 04:02:24;;;;;;;17.87;11.50;;;;;;;;;;5034411;28;20471;-76
2022/07/30 04:04:50;;;;;;;16.40;12.00;;;;;;;;;;5034421;28;20453;-76
2022/07/30 04:07:16;;;;;;;11.40;9.90;;;;;;;;;;5034509;28;20446;-75
2022/07/30 04:09:42;;;;;;;13.60;10.40;;;;;;;;;;5034327;28;20392;-76
2022/07/30 04:12:09;;;;;;;19.87;10.80;;;;;;;;;;5034332;28;20384;-75
2022/07/30 04:14:42;;;;;;;15.73;11.10;;;;;;;;;;5034096;28;20466;-76
2022/07/30 04:17:11;;;;;;;12.57;11.17;;;;;;;;;;5034207;28;20461;-76
2022/07/30 04:19:44;;;;;;;17.57;11.93;;;;;;;;;;5034402;28;20799;-75
2022/07/30 04:22:11;;;;;;;17.37;11.00;;;;;;;;;;5034093;28;20406;-76
2022/07/30 04:24:38;;;;;;;14.70;11.07;;;;;;;;;;5033884;28;20428;-76
2022/07/30 04:27:04;;;;;;;13.23;11.13;;;;;;;;;;5033189;28;20914;-75
2022/07/30 04:29:30;;;;;;;16.63;11.60;;;;;;;;;;5034327;28;20470;-75
2022/07/30 04:31:56;;;;;;;21.20;11.10;;;;;;;;;;5033921;28;20417;-76
2022/07/30 04:34:22;;;;;;;15.97;11.23;;;;;;;;;;5033550;28;20789;-75
2022/07/30 04:36:48;;;;;;;15.30;10.67;;;;;;;;;;5033934;28;20465;-76
2022/07/30 04:39:14;;;;;;;18.20;10.80;;;;;;;;;;5034114;28;20388;-75
2022/07/30 04:41:40;;;;;;;16.17;11.50;;;;;;;;;;5033845;28;20385;-76
2022/07/30 04:44:06;;;;;;;11.93;10.30;;;;;;;;;;5032070;28;20910;-75
2022/07/30 04:46:32;;;;;;;16.53;11.93;;;;;;;;;;5033808;28;20483;-76
2022/07/30 04:48:58;;;;;;;16.97;12.90;;;;;;;;;;5033737;28;20428;-75
2022/07/30 04:51:35;;;;;;;13.23;11.83;;;;;;;;;;5033922;28;20412;-75
2022/07/30 04:54:02;;;;;;;15.70;11.00;;;;;;;;;;5033171;28;20933;-75
2022/07/30 04:56:30;;;;;;;15.07;11.57;;;;;;;;;;5033812;28;20432;-74
2022/07/30 04:58:56;;;;;;;18.50;12.20;;;;;;;;;;5033424;28;20414;-75
2022/07/30 05:01:24;;;;;;;14.00;11.83;;;;;;;;;;5033667;28;20380;-75
2022/07/30 05:03:52;;;;;;;15.97;12.97;;;;;;;;;;5032950;28;20404;-75
2022/07/30 05:06:18;;;;;;;15.73;12.73;;;;;;;;;;5033471;28;20464;-74
2022/07/30 05:08:45;;;;;;;16.30;12.80;;;;;;;;;;5033404;28;20401;-75
2022/07/30 05:11:12;;;;;;;18.70;12.60;;;;;;;;;;5033359;28;20392;-75
2022/07/30 05:13:39;;;;;;;21.13;13.57;;;;;;;;;;5033009;28;20494;-75
2022/07/30 05:16:05;;;;;;;22.07;16.57;;;;;;;;;;5032106;28;20464;-76
2022/07/30 05:18:31;;;;;;;26.23;16.13;;;;;;;;;;5033333;28;20414;-75
2022/07/30 05:20:58;;;;;;;26.07;16.27;;;;;;;;;;5033263;28;20413;-75
2022/07/30 05:23:24;;;;;;;17.70;14.50;;;;;;;;;;5031768;28;20956;-76
2022/07/30 05:25:50;;;;;;;20.37;14.37;;;;;;;;;;5033731;28;20396;-75
2022/07/30 05:28:16;;;;;;;31.83;15.80;;;;;;;;;;5033001;28;20399;-75
2022/07/30 05:30:41;;;;;;;27.13;16.07;;;;;;;;;;5033233;28;20397;-76
2022/07/30 05:33:08;;;;;;;26.23;17.90;;;;;;;;;;5032858;28;20930;-75
2022/07/30 05:35:34;;;;;;;27.63;18.20;;;;;;;;;;5033391;28;20450;-75
2022/07/30 05:38:00;;;;;;;23.70;17.13;;;;;;;;;;5033051;28;20495;-75
2022/07/30 05:40:26;;;;;;;24.67;17.60;;;;;;;;;;5033135;28;20429;-75
2022/07/30 05:42:52;;;;;;;29.53;19.10;;;;;;;;;;5032908;28;20782;-76
2022/07/30 05:45:18;;;;;;;26.03;20.07;;;;;;;;;;5031885;28;20521;-75
2022/07/30 05:47:44;;;;;;;25.23;19.17;;;;;;;;;;5033247;28;20388;-76
2022/07/30 05:50:11;;;;;;;31.13;19.37;;;;;;;;;;5033089;28;20384;-76
2022/07/30 05:52:37;;;;;;;31.87;21.50;;;;;;;;;;5031368;28;20408;-75
2022/07/30 05:55:04;;;;;;;29.03;19.70;;;;;;;;;;5033068;28;20413;-75
2022/07/30 05:57:30;;;;;;;28.57;19.23;;;;;;;;;;5032900;28;20388;-76
2022/07/30 05:59:56;;;;;;;25.07;18.03;;;;;;;;;;5033013;28;20389;-76
2022/07/30 06:02:22;;;;;;;26.70;20.43;;;;;;;;;;5032335;28;20489;-75
2022/07/30 06:04:48;;;;;;;27.33;20.23;;;;;;;;;;5033585;28;20519;-74
2022/07/30 06:07:14;;;;;;;25.40;19.43;;;;;;;;;;5036872;28;20776;-78
2022/07/30 06:09:40;;;;;;;38.93;21.47;;;;;;;;;;5035080;28;20438;-76
2022/07/30 06:12:06;;;;;;;25.43;19.57;;;;;;;;;;5036681;28;20433;-78
2022/07/30 06:14:32;;;;;;;29.60;18.70;;;;;;;;;;5035145;28;20479;-77
2022/07/30 06:16:58;;;;;;;28.07;20.00;;;;;;;;;;5036483;28;20540;-78
2022/07/30 06:19:25;;;;;;;30.43;19.00;;;;;;;;;;5036478;28;20423;-77
2022/07/30 06:21:51;;;;;;;27.23;17.43;;;;;;;;;;5036394;28;20773;-79
2022/07/30 06:24:17;;;;;;;31.40;19.43;;;;;;;;;;5035802;28;20418;-77
2022/07/30 06:26:43;;;;;;;30.73;18.90;;;;;;;;;;5036100;28;20421;-78
2022/07/30 06:29:09;;;;;;;30.77;20.40;;;;;;;;;;5036272;28;20446;-78
2022/07/30 06:31:37;;;;;;;24.20;18.07;;;;;;;;;;5036246;28;20409;-79
2022/07/30 06:34:03;;;;;;;31.80;18.13;;;;;;;;;;5036156;28;20446;-78
2022/07/30 06:36:29;;;;;;;29.47;18.87;;;;;;;;;;5018114;28;20490;-77
2022/07/30 06:38:55;;;;;;;25.77;16.73;;;;;;;;;;5036166;28;20410;-76
2022/07/30 06:41:21;;;;;;;27.30;18.00;;;;;;;;;;5036016;28;20436;-79
2022/07/30 06:43:49;;;;;;;27.20;17.67;;;;;;;;;;5035957;28;20498;-77
2022/07/30 06:46:15;;;;;;;34.23;19.67;;;;;;;;;;5035976;28;20392;-78
2022/07/30 06:48:41;;;;;;;25.63;17.93;;;;;;;;;;5035889;28;20512;-79
2022/07/30 06:51:08;;;;;;;27.87;18.47;;;;;;;;;;5034620;28;20411;-78
2022/07/30 06:53:34;;;;;;;25.77;18.13;;;;;;;;;;5034484;28;20860;-79
2022/07/30 06:56:00;;;;;;;32.17;19.90;;;;;;;;;;5035912;28;20984;-80
2022/07/30 06:58:27;;;;;;;29.00;17.97;;;;;;;;;;5034607;28;20418;-79
2022/07/30 07:00:53;;;;;;;27.73;19.60;;;;;;;;;;5035846;28;20385;-76
2022/07/30 07:03:20;;;;;;;26.20;17.53;;;;;;;;;;5035229;28;20432;-76
2022/07/30 07:05:46;;;;;;;26.03;18.47;;;;;;;;;;5034364;28;20411;-75
2022/07/30 07:08:12;;;;;;;26.30;16.93;;;;;;;;;;5035635;28;20428;-76
2022/07/30 07:10:38;;;;;;;19.10;15.73;;;;;;;;;;5035414;28;20414;-76
2022/07/30 07:13:04;;;;;;;22.33;14.97;;;;;;;;;;5035002;28;20531;-75
2022/07/30 07:15:30;;;;;;;25.93;13.87;;;;;;;;;;5034358;28;20552;-75
2022/07/30 07:17:56;;;;;;;25.87;15.67;;;;;;;;;;5034126;28;20416;-76
2022/07/30 07:20:22;;;;;;;24.10;15.37;;;;;;;;;;5034191;28;20834;-76
2022/07/30 07:22:48;;;;;;;27.30;16.20;;;;;;;;;;5034843;28;20403;-75
2022/07/30 07:25:14;;;;;;;21.60;15.33;;;;;;;;;;5033773;28;20450;-75
2022/07/30 07:27:40;;;;;;;18.80;14.07;;;;;;;;;;5035067;28;20409;-75
2022/07/30 07:30:07;;;;;;;20.20;14.40;;;;;;;;;;5035231;28;20415;-77
2022/07/30 07:32:34;;;;;;;19.00;14.27;;;;;;;;;;5034989;28;20449;-76
2022/07/30 07:35:00;;;;;;;25.10;14.20;;;;;;;;;;5034911;28;20392;-75
2022/07/30 07:37:26;;;;;;;18.37;12.50;;;;;;;;;;5017246;28;20493;-76
2022/07/30 07:39:52;;;;;;;19.70;13.50;;;;;;;;;;5034945;28;20426;-75
2022/07/30 07:42:18;;;;;;;18.20;12.50;;;;;;;;;;5033527;28;20419;-77
2022/07/30 07:44:44;;;;;;;21.87;14.93;;;;;;;;;;5034834;28;20407;-76
2022/07/30 07:47:10;;;;;;;16.90;14.10;;;;;;;;;;5034658;28;20878;-76
2022/07/30 07:49:36;;;;;;;20.67;14.37;;;;;;;;;;5035787;28;20388;-76
2022/07/30 07:52:02;;;;;;;24.80;15.50;;;;;;;;;;5034797;28;20418;-76
2022/07/30 07:54:28;;;;;;;22.83;15.10;;;;;;;;;;5034290;28;20439;-78
2022/07/30 07:56:57;;;;;;;21.20;14.90;;;;;;;;;;5034731;28;20797;-75
2022/07/30 07:59:23;;;;;;;20.67;14.00;;;;;;;;;;5034512;28;20384;-76
2022/07/30 08:01:49;;;;;;;24.27;16.53;;;;;;;;;;5034603;28;20439;-76
2022/07/30 08:04:15;;;;;;;23.60;15.00;;;;;;;;;;5034099;28;20800;-76
2022/07/30 08:06:41;;;;;;;19.47;14.33;;;;;;;;;;5034422;28;20417;-77
2022/07/30 08:09:08;;;;;;;23.60;13.53;;;;;;;;;;5034450;28;20511;-76
2022/07/30 08:11:34;;;;;;;17.30;12.83;;;;;;;;;;5034356;28;20416;-77
2022/07/30 08:13:59;;;;;;;18.60;12.27;;;;;;;;;;5032797;28;20924;-76
2022/07/30 08:16:25;;;;;;;21.43;12.73;;;;;;;;;;5036515;28;20462;-76
2022/07/30 08:18:51;;;;;;;14.43;9.90;;;;;;;;;;5034157;28;20417;-76
2022/07/30 08:21:17;;;;;;;14.00;10.10;;;;;;;;;;5034147;28;20414;-76
2022/07/30 08:23:43;;;;;;;14.03;11.40;;;;;;;;;;5032586;28;20433;-76
2022/07/30 08:26:09;;;;;;;22.90;10.33;;;;;;;;;;5034062;28;20474;-77
2022/07/30 08:28:36;;;;;;;17.70;10.70;;;;;;;;;;5033580;28;20792;-76
2022/07/30 08:31:02;;;;;;;18.50;11.77;;;;;;;;;;5032903;28;20424;-75
2022/07/30 08:33:28;;;;;;;11.93;10.73;;;;;;;;;;5033510;28;20786;-76
2022/07/30 08:35:54;;;;;;;14.07;9.37;;;;;;;;;;5034883;28;20466;-75
2022/07/30 08:38:20;;;;;;;15.53;10.17;;;;;;;;;;5033760;28;20426;-76
2022/07/30 08:40:46;;;;;;;15.87;11.10;;;;;;;;;;5032898;28;20409;-77
2022/07/30 08:43:12;;;;;;;17.00;12.30;;;;;;;;;;5032262;28;20433;-77
2022/07/30 08:45:38;;;;;;;19.77;13.33;;;;;;;;;;5036590;28;20432;-76
2022/07/30 08:48:07;;;;;;;23.00;11.20;;;;;;;;;;5042232;28;20466;-77
2022/07/30 08:50:33;;;;;;;26.00;12.60;;;;;;;;;;5048322;28;20420;-76
2022/07/30 08:53:00;;;;;;;21.87;11.67;;;;;;;;;;5053327;28;20429;-76
2022/07/30 08:55:27;;;;;;;21.73;12.33;;;;;;;;;;5053426;28;20456;-76
2022/07/30 08:57:53;;;;;;;12.83;10.30;;;;;;;;;;5053348;28;20408;-77
2022/07/30 09:00:20;;;;;;;16.57;10.40;;;;;;;;;;5053272;28;20407;-76
2022/07/30 09:02:46;;;;;;;17.60;10.80;;;;;;;;;;5051752;28;20413;-76
2022/07/30 09:05:13;;;;;;;13.17;9.10;;;;;;;;;;5053281;28;20507;-76
2022/07/30 09:07:39;;;;;;;14.47;10.23;;;;;;;;;;5053240;28;20749;-76
2022/07/30 09:10:06;;;;;;;15.20;10.60;;;;;;;;;;5053340;28;20492;-76
2022/07/30 09:12:33;;;;;;;20.73;10.33;;;;;;;;;;5053140;28;20409;-77
2022/07/30 09:15:19;;;;;;;15.03;10.07;;;;;;;;;;5050148;28;20853;-76
2022/07/30 09:17:45;;;;;;;15.43;10.33;;;;;;;;;;5041210;28;20763;-76
2022/07/30 09:20:11;;;;;;;15.53;8.93;;;;;;;;;;5033441;28;20815;-75
2022/07/30 09:22:42;;;;;;;12.23;8.60;;;;;;;;;;5032778;28;20941;-74
2022/07/30 09:25:08;;;;;;;11.20;9.07;;;;;;;;;;5033216;28;20390;-76
2022/07/30 09:27:44;;;;;;;14.17;9.53;;;;;;;;;;5033147;28;20890;-76
2022/07/30 09:30:10;;;;;;;9.13;7.90;;;;;;;;;;5033072;28;20831;-77
2022/07/30 09:32:53;;;;;;;9.40;8.00;;;;;;;;;;5034759;28;20479;-77
2022/07/30 09:35:19;;;;;;;16.07;7.43;;;;;;;;;;5061958;28;20417;-75
2022/07/30 09:37:46;;;;;;;9.70;7.40;;;;;;;;;;5040540;28;20448;-76
2022/07/30 09:40:13;;;;;;;14.47;8.07;;;;;;;;;;5042206;28;20433;-75
2022/07/30 09:42:39;;;;;;;12.40;8.97;;;;;;;;;;5041217;28;20421;-76
2022/07/30 09:45:05;;;;;;;14.23;7.57;;;;;;;;;;5040846;28;20457;-76
2022/07/30 09:47:32;;;;;;;11.63;7.87;;;;;;;;;;5056852;28;20412;-76
2022/07/30 09:50:10;;;;;;;11.57;7.20;;;;;;;;;;5056967;28;20473;-75
2022/07/30 09:52:37;;;;;;;7.50;5.60;;;;;;;;;;5056905;28;20416;-75
2022/07/30 09:55:03;;;;;;;12.00;7.70;;;;;;;;;;5049217;28;20425;-74
2022/07/30 09:57:29;;;;;;;10.50;7.67;;;;;;;;;;5047909;28;20456;-74
2022/07/30 09:59:56;;;;;;;12.90;7.87;;;;;;;;;;5047036;28;20430;-76
2022/07/30 10:02:30;;;;;;;14.93;9.13;;;;;;;;;;5052062;28;20472;-76
2022/07/30 10:05:07;;;;;;;11.70;7.43;;;;;;;;;;5052129;28;20441;-76
2022/07/30 10:07:33;;;;;;;10.90;7.00;;;;;;;;;;5036675;28;20401;-74
2022/07/30 10:10:00;;;;;;;11.90;5.93;;;;;;;;;;5037704;28;20515;-75
2022/07/30 10:12:26;;;;;;;7.33;5.70;;;;;;;;;;5047188;28;20436;-74
2022/07/30 10:14:53;;;;;;;7.23;5.47;;;;;;;;;;5035131;28;20441;-74
2022/07/30 10:17:19;;;;;;;8.93;6.67;;;;;;;;;;5043594;28;20461;-73
2022/07/30 10:19:45;;;;;;;8.60;6.30;;;;;;;;;;5036687;28;20443;-74
2022/07/30 10:22:13;;;;;;;10.87;6.47;;;;;;;;;;5036186;28;20413;-75
2022/07/30 10:24:40;;;;;;;9.80;5.90;;;;;;;;;;5034870;28;20441;-74
2022/07/30 10:27:09;;;;;;;11.87;5.90;;;;;;;;;;5036419;28;20886;-74
2022/07/30 10:29:37;;;;;;;10.00;5.37;;;;;;;;;;5050317;28;20420;-74
2022/07/30 10:32:03;;;;;;;8.73;5.00;;;;;;;;;;5054990;28;20679;-74
2022/07/30 10:34:29;;;;;;;10.97;5.90;;;;;;;;;;5055493;28;20448;-74
2022/07/30 10:36:59;;;;;;;8.80;5.37;;;;;;;;;;5056040;28;20459;-74
2022/07/30 10:39:28;;;;;;;8.00;5.57;;;;;;;;;;5056245;28;20766;-74
2022/07/30 10:42:16;;;;;;;6.90;4.83;;;;;;;;;;5040802;28;20441;-74
2022/07/30 10:44:42;;;;;;;10.67;4.73;;;;;;;;;;5053859;28;20432;-74
2022/07/30 10:47:09;;;;;;;5.10;3.70;;;;;;;;;;5056139;28;20427;-74
2022/07/30 10:49:36;;;;;;;7.37;4.20;;;;;;;;;;5048376;28;20429;-72
2022/07/30 10:52:02;;;;;;;6.77;4.70;;;;;;;;;;5045267;28;20443;-74
2022/07/30 10:54:34;;;;;;;7.40;5.40;;;;;;;;;;5042733;28;20519;-72
2022/07/30 10:57:20;;;;;;;8.37;4.90;;;;;;;;;;5044316;28;20466;-74
2022/07/30 10:59:49;;;;;;;8.50;4.20;;;;;;;;;;5045165;28;20404;-74
2022/07/30 11:02:19;;;;;;;9.60;5.00;;;;;;;;;;5045875;28;20414;-74
2022/07/30 11:04:45;;;;;;;10.83;4.77;;;;;;;;;;5045901;28;20453;-73
2022/07/30 11:07:23;;;;;;;14.13;5.80;;;;;;;;;;5035590;28;20421;-74
2022/07/30 11:09:50;;;;;;;7.13;4.50;;;;;;;;;;5035678;28;20413;-74
2022/07/30 11:12:36;;;;;;;7.13;3.60;;;;;;;;;;5035141;28;20447;-75
2022/07/30 11:15:02;;;;;;;7.07;3.80;;;;;;;;;;5037870;28;20408;-74
2022/07/30 11:17:48;;;;;;;4.60;2.80;;;;;;;;;;5050137;28;20467;-74
2022/07/30 11:20:14;;;;;;;6.63;3.53;;;;;;;;;;5048390;28;20412;-72
2022/07/30 11:22:43;;;;;;;5.30;3.40;;;;;;;;;;5040626;28;20926;-74
2022/07/30 11:25:18;;;;;;;5.43;3.00;;;;;;;;;;5043742;28;20489;-74
2022/07/30 11:27:45;;;;;;;5.07;3.87;;;;;;;;;;5044785;28;20440;-74
2022/07/30 11:30:17;;;;;;;5.20;3.70;;;;;;;;;;5042973;28;20490;-74
2022/07/30 11:32:44;;;;;;;7.33;3.57;;;;;;;;;;5043493;28;20414;-74
2022/07/30 11:35:13;;;;;;;5.07;3.50;;;;;;;;;;5043391;28;20414;-74
2022/07/30 11:37:59;;;;;;;8.83;4.40;;;;;;;;;;5043252;28;20425;-74
2022/07/30 11:40:26;;;;;;;8.70;4.33;;;;;;;;;;5036441;28;20444;-74
2022/07/30 11:43:12;;;;;;;9.23;3.37;;;;;;;;;;5034575;28;20406;-73
2022/07/30 11:45:39;;;;;;;5.77;3.70;;;;;;;;;;5034743;28;20420;-74
2022/07/30 11:48:09;;;;;;;5.30;3.20;;;;;;;;;;5034703;28;20488;-74
2022/07/30 11:50:35;;;;;;;5.33;4.00;;;;;;;;;;5034457;28;20941;-74
2022/07/30 11:53:03;;;;;;;5.83;3.10;;;;;;;;;;5034036;28;20807;-75
2022/07/30 11:55:29;;;;;;;9.80;3.77;;;;;;;;;;5033310;28;20422;-74
2022/07/30 11:57:57;;;;;;;5.23;3.63;;;;;;;;;;5034165;28;20420;-75
2022/07/30 12:00:23;;;;;;;6.10;3.30;;;;;;;;;;5034340;28;20402;-75
2022/07/30 12:02:49;;;;;;;7.80;2.97;;;;;;;;;;5031887;28;20440;-75
2022/07/30 12:05:16;;;;;;;4.43;2.40;;;;;;;;;;5034424;28;20441;-75
2022/07/30 12:07:42;;;;;;;4.10;2.30;;;;;;;;;;5035327;28;20410;-76
2022/07/30 12:10:12;;;;;;;4.80;2.53;;;;;;;;;;5034564;28;20401;-75
2022/07/30 12:12:38;;;;;;;6.00;3.20;;;;;;;;;;5033789;28;20409;-75
2022/07/30 12:15:04;;;;;;;5.57;3.23;;;;;;;;;;5033982;28;20406;-76
2022/07/30 12:17:40;;;;;;;5.93;3.23;;;;;;;;;;5034196;28;20904;-75
2022/07/30 12:20:13;;;;;;;4.90;2.77;;;;;;;;;;5041830;28;20782;-75
2022/07/30 12:22:39;;;;;;;3.50;2.37;;;;;;;;;;5051876;28;20504;-75
2022/07/30 12:25:09;;;;;;;6.13;2.23;;;;;;;;;;5040706;28;20461;-75
2022/07/30 12:27:35;;;;;;;2.40;2.13;;;;;;;;;;5033945;28;20418;-75
2022/07/30 12:30:01;;;;;;;3.97;2.20;;;;;;;;;;5033914;28;20417;-75
2022/07/30 12:32:30;;;;;;;2.70;2.40;;;;;;;;;;5033901;28;20444;-75
2022/07/30 12:34:56;;;;;;;4.07;2.50;;;;;;;;;;5033894;28;20441;-75
2022/07/30 12:37:22;;;;;;;5.93;2.90;;;;;;;;;;5040741;28;20461;-75
2022/07/30 12:39:48;;;;;;;3.20;2.50;;;;;;;;;;5046182;28;20947;-75
2022/07/30 12:42:20;;;;;;;5.00;2.87;;;;;;;;;;5053647;28;20409;-74
2022/07/30 12:44:49;;;;;;;3.27;2.23;;;;;;;;;;5038870;28;20842;-75
2022/07/30 12:47:22;;;;;;;3.63;2.60;;;;;;;;;;5032454;28;20490;-75
2022/07/30 12:49:48;;;;;;;5.60;2.43;;;;;;;;;;5033979;28;20874;-74
2022/07/30 12:52:22;;;;;;;2.63;2.30;;;;;;;;;;5033650;28;20436;-75
2022/07/30 12:54:58;;;;;;;3.50;2.60;;;;;;;;;;5033614;28;20433;-75
2022/07/30 12:57:24;;;;;;;3.60;2.30;;;;;;;;;;5045821;28;20882;-75
2022/07/30 13:00:02;;;;;;;5.87;2.60;;;;;;;;;;5042520;28;20418;-75
2022/07/30 13:02:32;;;;;;;3.80;2.80;;;;;;;;;;5044197;28;20426;-76
2022/07/30 13:04:58;;;;;;;2.37;2.17;;;;;;;;;;5053742;28;20448;-75
2022/07/30 13:07:27;;;;;;;3.00;2.23;;;;;;;;;;5057673;28;20416;-75
2022/07/30 13:10:07;;;;;;;2.83;1.90;;;;;;;;;;5053100;28;20440;-73
2022/07/30 13:12:33;;;;;;;3.53;2.60;;;;;;;;;;5041424;28;20507;-75
2022/07/30 13:14:59;;;;;;;3.80;2.63;;;;;;;;;;5048411;28;20472;-73
2022/07/30 13:17:25;;;;;;;2.67;2.23;;;;;;;;;;5039764;28;20491;-73
2022/07/30 13:19:51;;;;;;;4.00;2.87;;;;;;;;;;5033231;28;20906;-74
2022/07/30 13:22:16;;;;;;;4.87;2.37;;;;;;;;;;5032943;28;20471;-74
2022/07/30 13:24:42;;;;;;;5.27;2.70;;;;;;;;;;5039638;28;20481;-74
2022/07/30 13:27:09;;;;;;;4.73;2.10;;;;;;;;;;5052730;28;20451;-74
2022/07/30 13:29:34;;;;;;;2.57;1.67;;;;;;;;;;5052908;28;20462;-74
2022/07/30 13:32:00;;;;;;;6.00;2.33;;;;;;;;;;5052827;28;20417;-74
2022/07/30 13:34:26;;;;;;;2.10;1.87;;;;;;;;;;5053046;28;20440;-74
2022/07/30 13:36:52;;;;;;;2.67;2.40;;;;;;;;;;5040571;28;20969;-74
2022/07/30 13:39:18;;;;;;;5.03;2.20;;;;;;;;;;5033351;28;20430;-74
2022/07/30 13:41:45;;;;;;;4.60;2.50;;;;;;;;;;5032900;28;20428;-75
2022/07/30 13:44:11;;;;;;;5.90;2.23;;;;;;;;;;5032415;28;20450;-74
2022/07/30 13:46:37;;;;;;;2.70;2.00;;;;;;;;;;5033001;28;20491;-73
2022/07/30 13:49:03;;;;;;;3.63;2.43;;;;;;;;;;5033122;28;20818;-74
2022/07/30 13:51:30;;;;;;;2.70;1.87;;;;;;;;;;5049455;28;20916;-74
2022/07/30 13:53:56;;;;;;;4.87;2.40;;;;;;;;;;5036709;28;20429;-75
2022/07/30 14:04:09;;;;;;;2.67;1.60;;;;;;;;;;5650072;22;20498;-74
2022/07/30 14:06:35;;;;;;;2.50;1.27;;;;;;;;;;5052131;28;20424;-74
2022/07/30 14:09:01;;;;;;;1.50;1.10;;;;;;;;;;5052894;28;20440;-76
2022/07/30 14:11:27;;;;;;;2.90;1.50;;;;;;;;;;5052609;28;20522;-74
2022/07/30 14:13:53;;;;;;;5.10;1.90;;;;;;;;;;5052026;28;20444;-73
2022/07/30 14:16:19;;;;;;;3.70;1.60;;;;;;;;;;5052555;28;20495;-74
2022/07/30 14:18:45;;;;;;;3.97;1.80;;;;;;;;;;5052671;28;20502;-74
2022/07/30 14:21:11;;;;;;;3.43;1.70;;;;;;;;;;5046948;28;20997;-74
2022/07/30 14:23:38;;;;;;;2.67;1.67;;;;;;;;;;5039791;28;20447;-74
2022/07/30 14:26:04;;;;;;;2.70;1.60;;;;;;;;;;5048865;28;20929;-75
2022/07/30 14:28:30;;;;;;;2.10;1.80;;;;;;;;;;5056249;28;20511;-75
2022/07/30 14:30:56;;;;;;;2.37;1.70;;;;;;;;;;5056300;28;20408;-75
2022/07/30 14:33:22;;;;;;;3.10;1.70;;;;;;;;;;5055837;28;20536;-74
2022/07/30 14:35:51;;;;;;;4.23;1.83;;;;;;;;;;5056141;28;20559;-74
2022/07/30 14:38:17;;;;;;;3.63;2.20;;;;;;;;;;5056228;28;20507;-75
2022/07/30 14:40:43;;;;;;;5.80;1.70;;;;;;;;;;5056055;28;20447;-76
2022/07/30 14:43:09;;;;;;;6.13;1.80;;;;;;;;;;5055861;28;20743;-75